Insider Buying

 
Symbol Name Keyword
Filings for:
Note: This page automatically refreshes every three minutes.
  Symbol Owner Relationship Date Cost # Shares Value($) Total Shares Filing
Y! FUBO TEXTOR JOHN C 10% Owner Sep 25, 2020 $8.99 19,975 179,575 89,418 Sep 28, 2020, 09:23 PM
Y! FUBO TEXTOR JOHN C 10% Owner Sep 24, 2020 $9.05 17,900 161,995 69,443 Sep 28, 2020, 09:23 PM
Y! BCAT Rieder Richard M Portfolio Manager Sep 24, 2020 $20.00 100,000 2,000,000 100,000 Sep 28, 2020, 08:54 PM
Y! BCAT Fairbairn Robert W Director Sep 24, 2020 $20.00 15,000 300,000 15,000 Sep 28, 2020, 08:51 PM
Y! PERS Montare Resources I, LLC 10% Owner Sep 28, 2020 $0.49 125,588 61,576 2,259,081 Sep 28, 2020, 08:25 PM
Y! PERS Montare Resources I, LLC 10% Owner Sep 25, 2020 $0.48 31,897 15,422 2,133,493 Sep 28, 2020, 08:25 PM
Y! PERS Montare Resources I, LLC 10% Owner Sep 24, 2020 $0.48 158,080 75,531 2,101,596 Sep 28, 2020, 08:25 PM
Y! AEL MULCAHY DAVID S. Director Sep 25, 2020 $19.57 10,000 195,682 118,439 Sep 28, 2020, 08:09 PM
Y! UEPS Value Capital Partners (Pty) Ltd 10% Owner Sep 25, 2020 $3.18 139,317 443,028 9,553,000 Sep 28, 2020, 07:01 PM
Y! UEPS Value Capital Partners (Pty) Ltd 10% Owner Sep 24, 2020 $3.13 97,342 304,680 9,413,683 Sep 28, 2020, 07:01 PM
Y! UEPS Ball Antony C Director Sep 25, 2020 $3.18 139,317 443,028 9,553,000 Sep 28, 2020, 07:00 PM
Y! UEPS Ball Antony C Director Sep 24, 2020 $3.13 97,342 304,680 9,413,683 Sep 28, 2020, 07:00 PM
Y! KFY BURNISON GARY D CEO Sep 25, 2020 $28.63 500 14,317 521,400 Sep 28, 2020, 06:42 PM
Y! IMH RHP Trust, dated May 31, 2011 10% Owner Sep 24, 2020 $1.13 670,000 757,100 3,275,465 Sep 28, 2020, 05:32 PM
Y! IMH PICKUP RICHARD H. 10% Owner Sep 24, 2020 $1.13 670,000 757,100 3,275,465 Sep 28, 2020, 05:25 PM
Y! FTEK Cummings William E JR Senior Vice President, Sales Sep 25, 2020 $0.72 5,329 3,835 292,045 Sep 28, 2020, 05:00 PM
Y! BTN Fundamental Global Investors, LLC Director Sep 24, 2020 $1.54 561 866 200,064 Sep 28, 2020, 04:50 PM
Y! BTN Fundamental Global Investors, LLC Director Sep 24, 2020 $1.54 1,041 1,606 2,058,186 Sep 28, 2020, 04:50 PM
Y! BTN Fundamental Global Investors, LLC Director Sep 25, 2020 $1.53 247 377 200,311 Sep 28, 2020, 04:50 PM
Y! BTN Fundamental Global Investors, LLC Director Sep 25, 2020 $1.53 459 701 2,058,645 Sep 28, 2020, 04:50 PM
Y! XELB DiSanto Mark Director Sep 25, 2020 $0.68 10,000 6,800 1,011,105 Sep 28, 2020, 04:39 PM
Y! XELB DiSanto Mark Director Sep 24, 2020 $0.67 10,000 6,700 1,001,105 Sep 28, 2020, 04:39 PM
Y! ALTM Bretches D. Clay CEO Sep 24, 2020 $11.01 114 1,255 18,114 Sep 28, 2020, 04:38 PM
Y! PB TIMANUS H E JR Chairman Sep 25, 2020 $49.00 1,000 49,000 177,944 Sep 28, 2020, 04:33 PM
Y! AI TONKEL J ROCK JR President and CEO Sep 24, 2020 $2.52 20,000 50,320 568,326 Sep 28, 2020, 04:30 PM
Y! AI Konzmann Richard Ernst EVP, CFO and Treasurer Sep 24, 2020 $2.50 20,000 50,000 104,995 Sep 28, 2020, 04:30 PM
Y! SAFE ISTAR INC. 10% Owner Sep 24, 2020 $55.01 4,544 249,965 33,655,897 Sep 28, 2020, 04:25 PM
Y! SAFE ISTAR INC. 10% Owner Sep 28, 2020 $58.60 796 46,646 33,655,897 Sep 28, 2020, 04:25 PM
Y! SAFE ISTAR INC. 10% Owner Sep 25, 2020 $56.28 4,441 249,939 33,655,897 Sep 28, 2020, 04:25 PM
Y! NS Hill Dan J Director Sep 28, 2020 $10.00 5,000 50,000 58,614 Sep 28, 2020, 04:22 PM
Y! WHLR STILWELL JOSEPH Director Sep 24, 2020 $2.75 1 3 853,747 Sep 28, 2020, 04:21 PM
Y! FEIM Edenbrook Capital, LLC Director Sep 28, 2020 $10.30 2,988 30,788 1,484,733 Sep 28, 2020, 04:17 PM
Y! AGRX Reilly Dennis Chief Financial Officer Sep 28, 2020 $2.85 9,000 25,650 106,306 Sep 28, 2020, 04:10 PM
Y! HOME Crevoiserat Joanne C. Director Sep 25, 2020 $14.05 13,526 190,004 37,403 Sep 28, 2020, 04:08 PM
Y! HWBK Guthrie Stephen Edward SENIOR VP AND CFO Sep 24, 2020 $17.00 3,000 51,000 3,000 Sep 28, 2020, 02:57 PM
Y! LMB Horowitz Joshua Director Sep 25, 2020 $8.14 28,937 235,431 171,062 Sep 28, 2020, 02:12 PM
Y! LMB Horowitz Joshua Director Sep 24, 2020 $7.74 4,825 37,359 142,125 Sep 28, 2020, 02:12 PM
Y! RCG STAHL MURRAY President and CEO Sep 25, 2020 $1.30 75 97 38,634 Sep 28, 2020, 01:42 PM
Y! RCG STAHL MURRAY President and CEO Sep 25, 2020 $1.30 300 390 39,234 Sep 28, 2020, 01:42 PM
Y! RCG STAHL MURRAY President and CEO Sep 25, 2020 $1.30 300 390 38,934 Sep 28, 2020, 01:42 PM
Y! TPL HORIZON KINETICS ASSET MANAGEMENT LLC 10% Owner Sep 25, 2020 $451.00 14 6,314 276,943 Sep 28, 2020, 01:31 PM
Y! PBF Nimbley Thomas J. Chief Executive Officer Sep 28, 2020 $5.92 50,000 296,195 427,857 Sep 28, 2020, 01:13 PM
Y! CCNE Straub Francis X III Director Sep 28, 2020 $14.26 7,000 99,820 28,766 Sep 28, 2020, 11:55 AM
Y! SOR ATWOOD J RICHARD President Sep 25, 2020 $35.88 1,100 39,463 24,775 Sep 28, 2020, 11:43 AM
Y! SOR ATTEBERRY THOMAS H VP & Portfolio Manager Sep 25, 2020 $36.04 100 3,604 4,600 Sep 28, 2020, 11:42 AM
Y! SOR ROMICK STEVEN T VP & Portfolio Manager Sep 24, 2020 $36.24 2,000 72,480 29,076 Sep 28, 2020, 11:40 AM
Y! RZLT HANDOK, INC. 10% Owner Sep 25, 2020 $0.45 125,000 55,737 99,524,528 Sep 28, 2020, 11:12 AM
Y! CBKM Lober Ralph J II CEO & President Sep 24, 2020 $15.95 75 1,196 34,869 Sep 28, 2020, 10:39 AM
Y! TIPT Barnes Michael Gene Executive Chairman Sep 25, 2020 $4.84 2,483 12,015 8,558,331 Sep 28, 2020, 10:26 AM
Y! TIPT Barnes Michael Gene Executive Chairman Sep 24, 2020 $4.66 2,483 11,576 8,555,848 Sep 28, 2020, 10:26 AM
Y! BCPL Forethought Life Insurance Co 10% Owner Sep 25, 2020 $24.93 64,180 1,600,007 402,516 Sep 28, 2020, 10:10 AM
Y! VOXX Kahli Beat 10% Owner Sep 25, 2020 $7.50 3,576 26,820 4,025,946 Sep 28, 2020, 08:42 AM
Y! JSD Saba Capital Management, L.P. 10% Owner Sep 24, 2020 $12.33 22,480 277,178 1,112,783 Sep 28, 2020, 08:24 AM
Y! JSD Saba Capital Management, L.P. 10% Owner Sep 25, 2020 $12.32 2,100 25,872 1,114,883 Sep 28, 2020, 08:24 AM
Y! JFR Saba Capital Management, L.P. 10% Owner Sep 25, 2020 $8.27 138,774 1,147,661 6,251,323 Sep 28, 2020, 08:17 AM
Y! JFR Saba Capital Management, L.P. 10% Owner Sep 24, 2020 $8.30 60,105 498,872 6,112,549 Sep 28, 2020, 08:17 AM
Y! DEX Saba Capital Management, L.P. 10% Owner Sep 24, 2020 $8.73 22,613 197,411 1,426,601 Sep 28, 2020, 08:13 AM
Y! SBBP GILL DAVID N Director Sep 24, 2020 $2.13 8,000 17,040 74,896 Sep 28, 2020, 07:48 AM
Y! TCON Opaleye Management Inc. 10% Owner Sep 24, 2020 $4.44 534 2,372 228,000 Sep 25, 2020, 09:30 PM
Y! TCON Opaleye Management Inc. 10% Owner Sep 23, 2020 $4.83 55,000 265,815 1,764,438 Sep 25, 2020, 09:30 PM
Y! TCON Opaleye Management Inc. 10% Owner Sep 23, 2020 $4.83 2,200 10,633 227,466 Sep 25, 2020, 09:30 PM
Y! TCON Opaleye Management Inc. 10% Owner Sep 24, 2020 $4.44 21,000 93,276 1,785,438 Sep 25, 2020, 09:30 PM
Y! KOD BAKER BROS. ADVISORS LP Director Sep 25, 2020 $56.65 48,125 2,726,182 11,324,937 Sep 25, 2020, 06:02 PM
Y! JVA Rotelli John Director Sep 24, 2020 $3.45 750 2,588 6,048 Sep 25, 2020, 05:45 PM
Y! HIG Swift Christopher Chairman and CEO Sep 23, 2020 $35.98 6,975 250,960 227,309 Sep 25, 2020, 05:12 PM
Y! ETM FIELD DAVID J Chairman, President and CEO Sep 23, 2020 $1.46 1,929 2,809 1,483,124 Sep 25, 2020, 05:11 PM
Y! XAIR BECK DOUGLAS Chief Financial Officer Sep 24, 2020 $4.88 3,000 14,640 64,710 Sep 25, 2020, 05:00 PM
Y! RSLS ARMISTICE CAPITAL, LLC 10% Owner Sep 23, 2020 $4.07 2,000 8,140 5,317,400 Sep 25, 2020, 04:57 PM
Y! ASA Merk Alexander COO Sep 25, 2020 $20.85 2,080 43,375 32,270 Sep 25, 2020, 04:50 PM
Y! SNMP SANCHEZ ANTONIO R III Director Sep 08, 2020 $0.30 35,320 10,557 35,320 Sep 25, 2020, 04:48 PM
Y! SAFT Lindeberg Frederic H Director Sep 25, 2020 $67.93 2,000 135,860 22,000 Sep 25, 2020, 04:46 PM
Y! GBDC Golub David Chief Executive Officer Sep 24, 2020 $12.81 15,000 192,107 1,804,890 Sep 25, 2020, 04:24 PM
Y! GBDC Golub David Chief Executive Officer Sep 23, 2020 $12.94 15,000 194,139 1,789,890 Sep 25, 2020, 04:24 PM
Y! FEIM Edenbrook Capital, LLC Director Sep 25, 2020 $10.36 10,000 103,646 1,481,745 Sep 25, 2020, 04:22 PM
Y! GBDC Golub Lawrence E Chairman Sep 24, 2020 $12.81 15,000 192,107 1,804,890 Sep 25, 2020, 04:22 PM
Y! GBDC Golub Lawrence E Chairman Sep 23, 2020 $12.94 15,000 194,139 1,789,890 Sep 25, 2020, 04:22 PM
Y! ABIO CONWAY ROBERT E Director Sep 25, 2020 $4.28 5,000 21,400 20,000 Sep 25, 2020, 04:20 PM
Y! KINS MCFADDEN TIMOTHY P Director Sep 25, 2020 $5.91 5,000 29,550 20,086 Sep 25, 2020, 04:13 PM
Y! PSTI CLOVER WOLF CAPITAL - LIMITED PARTNERSHIP 10% Owner Sep 24, 2020 $9.02 34,800 313,896 3,775,271 Sep 25, 2020, 04:10 PM
Y! FPAY Dvorkin Howard Director Sep 24, 2020 $1.70 84,624 143,861 2,550,304 Sep 25, 2020, 04:09 PM
Y! THO KLEIN CHRISTOPHER J Director Aug 06, 2020 $112.04 192 21,512 118 Sep 25, 2020, 04:09 PM
Y! EGLE Vogel Gary Chief Executive Officer Sep 23, 2020 $16.25 3,000 48,750 158,837 Sep 25, 2020, 04:08 PM
Y! EGLE Vogel Gary Chief Executive Officer Sep 24, 2020 $16.00 1,000 16,000 159,837 Sep 25, 2020, 04:08 PM
Y! AE Roycraft Kevin J. CEO & President Sep 25, 2020 $19.98 102 2,038 2,310 Sep 25, 2020, 04:05 PM
Y! FMAO Planson Steven J Director Sep 25, 2020 $20.00 300 6,000 19,779 Sep 25, 2020, 03:53 PM
Y! TRC TOWERVIEW LLC 10% Owner Sep 25, 2020 $13.46 3 40 3,782,503 Sep 25, 2020, 03:48 PM
Y! HOME Bird Lewis L III Chairman, CEO and President Sep 23, 2020 $14.31 3,477 49,748 36,477 Sep 25, 2020, 03:41 PM
Y! LSF Danone Manifesto Ventures, PBC 10% Owner Sep 25, 2020 $22.00 90,910 2,000,020 857,194 Sep 25, 2020, 03:30 PM
Y! FXNC Smith Gerald F JR Director Sep 24, 2020 $14.42 2,001 28,848 3,501 Sep 25, 2020, 02:12 PM
Y! EYEN Grant Stuart M. 10% Owner Sep 24, 2020 $2.99 75,000 224,500 4,119,748 Sep 25, 2020, 01:42 PM
Y! LIVX ELLIN ROBERT S CEO & Chairman Sep 22, 2020 $2.83 1,000 2,833 1,479,946 Sep 25, 2020, 01:29 PM
Y! FMAO Planson Steven J Director Sep 24, 2020 $19.75 430 8,493 19,479 Sep 25, 2020, 01:20 PM
Y! RCG STAHL MURRAY President and CEO Sep 24, 2020 $1.29 300 388 38,559 Sep 25, 2020, 11:46 AM
Y! RCG STAHL MURRAY President and CEO Sep 24, 2020 $1.29 300 388 38,259 Sep 25, 2020, 11:46 AM
Y! RCG STAHL MURRAY President and CEO Sep 24, 2020 $1.30 75 97 37,959 Sep 25, 2020, 11:46 AM
Y! LBAI SCHWARZ RONALD E Sr. EVP & COO Sep 23, 2020 $9.85 2,500 24,625 85,335 Sep 25, 2020, 11:46 AM
Y! TPL HORIZON KINETICS ASSET MANAGEMENT LLC 10% Owner Sep 24, 2020 $457.02 14 6,398 276,929 Sep 25, 2020, 11:32 AM
Y! OFC PICKETT C TAYLOR Director Sep 24, 2020 $22.16 10,000 221,601 46,986 Sep 25, 2020, 11:16 AM
Y! RZLT HANDOK, INC. 10% Owner Sep 23, 2020 $0.46 125,000 57,138 99,274,528 Sep 25, 2020, 11:14 AM
Y! RZLT HANDOK, INC. 10% Owner Sep 24, 2020 $0.44 125,000 55,400 99,399,528 Sep 25, 2020, 11:14 AM
Next : Last
 
Symbol Name Keyword
Filings for:
Note: This page automatically refreshes every three minutes.
Desktop Version
Symbol Owner Relationship Date Value($)
FUBO TEXTOR JOHN C 10% Owner Sep 25, 2020 179,575
FUBO TEXTOR JOHN C 10% Owner Sep 24, 2020 161,995
BCAT Rieder Richard M Portfolio Manager Sep 24, 2020 2,000,000
BCAT Fairbairn Robert W Director Sep 24, 2020 300,000
PERS Montare Resources I, LLC 10% Owner Sep 28, 2020 61,576
PERS Montare Resources I, LLC 10% Owner Sep 25, 2020 15,422
PERS Montare Resources I, LLC 10% Owner Sep 24, 2020 75,531
AEL MULCAHY DAVID S. Director Sep 25, 2020 195,682
UEPS Value Capital Partners (Pty) Ltd 10% Owner Sep 25, 2020 443,028
UEPS Value Capital Partners (Pty) Ltd 10% Owner Sep 24, 2020 304,680
UEPS Ball Antony C Director Sep 25, 2020 443,028
UEPS Ball Antony C Director Sep 24, 2020 304,680
KFY BURNISON GARY D CEO Sep 25, 2020 14,317
IMH RHP Trust, dated May 31, 2011 10% Owner Sep 24, 2020 757,100
IMH PICKUP RICHARD H. 10% Owner Sep 24, 2020 757,100
FTEK Cummings William E JR Senior Vice President, Sales Sep 25, 2020 3,835
BTN Fundamental Global Investors, LLC Director Sep 24, 2020 866
BTN Fundamental Global Investors, LLC Director Sep 24, 2020 1,606
BTN Fundamental Global Investors, LLC Director Sep 25, 2020 377
BTN Fundamental Global Investors, LLC Director Sep 25, 2020 701
XELB DiSanto Mark Director Sep 25, 2020 6,800
XELB DiSanto Mark Director Sep 24, 2020 6,700
ALTM Bretches D. Clay CEO Sep 24, 2020 1,255
PB TIMANUS H E JR Chairman Sep 25, 2020 49,000
AI TONKEL J ROCK JR President and CEO Sep 24, 2020 50,320
AI Konzmann Richard Ernst EVP, CFO and Treasurer Sep 24, 2020 50,000
SAFE ISTAR INC. 10% Owner Sep 24, 2020 249,965
SAFE ISTAR INC. 10% Owner Sep 28, 2020 46,646
SAFE ISTAR INC. 10% Owner Sep 25, 2020 249,939
NS Hill Dan J Director Sep 28, 2020 50,000
WHLR STILWELL JOSEPH Director Sep 24, 2020 3
FEIM Edenbrook Capital, LLC Director Sep 28, 2020 30,788
AGRX Reilly Dennis Chief Financial Officer Sep 28, 2020 25,650
HOME Crevoiserat Joanne C. Director Sep 25, 2020 190,004
HWBK Guthrie Stephen Edward SENIOR VP AND CFO Sep 24, 2020 51,000
LMB Horowitz Joshua Director Sep 25, 2020 235,431
LMB Horowitz Joshua Director Sep 24, 2020 37,359
RCG STAHL MURRAY President and CEO Sep 25, 2020 97
RCG STAHL MURRAY President and CEO Sep 25, 2020 390
RCG STAHL MURRAY President and CEO Sep 25, 2020 390
TPL HORIZON KINETICS ASSET MANAGEMENT LLC 10% Owner Sep 25, 2020 6,314
PBF Nimbley Thomas J. Chief Executive Officer Sep 28, 2020 296,195
CCNE Straub Francis X III Director Sep 28, 2020 99,820
SOR ATWOOD J RICHARD President Sep 25, 2020 39,463
SOR ATTEBERRY THOMAS H VP & Portfolio Manager Sep 25, 2020 3,604
SOR ROMICK STEVEN T VP & Portfolio Manager Sep 24, 2020 72,480
RZLT HANDOK, INC. 10% Owner Sep 25, 2020 55,737
CBKM Lober Ralph J II CEO & President Sep 24, 2020 1,196
TIPT Barnes Michael Gene Executive Chairman Sep 25, 2020 12,015
TIPT Barnes Michael Gene Executive Chairman Sep 24, 2020 11,576
BCPL Forethought Life Insurance Co 10% Owner Sep 25, 2020 1,600,007
VOXX Kahli Beat 10% Owner Sep 25, 2020 26,820
JSD Saba Capital Management, L.P. 10% Owner Sep 24, 2020 277,178
JSD Saba Capital Management, L.P. 10% Owner Sep 25, 2020 25,872
JFR Saba Capital Management, L.P. 10% Owner Sep 25, 2020 1,147,661
JFR Saba Capital Management, L.P. 10% Owner Sep 24, 2020 498,872
DEX Saba Capital Management, L.P. 10% Owner Sep 24, 2020 197,411
SBBP GILL DAVID N Director Sep 24, 2020 17,040
TCON Opaleye Management Inc. 10% Owner Sep 24, 2020 2,372
TCON Opaleye Management Inc. 10% Owner Sep 23, 2020 265,815
TCON Opaleye Management Inc. 10% Owner Sep 23, 2020 10,633
TCON Opaleye Management Inc. 10% Owner Sep 24, 2020 93,276
KOD BAKER BROS. ADVISORS LP Director Sep 25, 2020 2,726,182
JVA Rotelli John Director Sep 24, 2020 2,588
HIG Swift Christopher Chairman and CEO Sep 23, 2020 250,960
ETM FIELD DAVID J Chairman, President and CEO Sep 23, 2020 2,809
XAIR BECK DOUGLAS Chief Financial Officer Sep 24, 2020 14,640
RSLS ARMISTICE CAPITAL, LLC 10% Owner Sep 23, 2020 8,140
ASA Merk Alexander COO Sep 25, 2020 43,375
SNMP SANCHEZ ANTONIO R III Director Sep 08, 2020 10,557
SAFT Lindeberg Frederic H Director Sep 25, 2020 135,860
GBDC Golub David Chief Executive Officer Sep 24, 2020 192,107
GBDC Golub David Chief Executive Officer Sep 23, 2020 194,139
FEIM Edenbrook Capital, LLC Director Sep 25, 2020 103,646
GBDC Golub Lawrence E Chairman Sep 24, 2020 192,107
GBDC Golub Lawrence E Chairman Sep 23, 2020 194,139
ABIO CONWAY ROBERT E Director Sep 25, 2020 21,400
KINS MCFADDEN TIMOTHY P Director Sep 25, 2020 29,550
PSTI CLOVER WOLF CAPITAL - LIMITED PARTNERSHIP 10% Owner Sep 24, 2020 313,896
FPAY Dvorkin Howard Director Sep 24, 2020 143,861
THO KLEIN CHRISTOPHER J Director Aug 06, 2020 21,512
EGLE Vogel Gary Chief Executive Officer Sep 23, 2020 48,750
EGLE Vogel Gary Chief Executive Officer Sep 24, 2020 16,000
AE Roycraft Kevin J. CEO & President Sep 25, 2020 2,038
FMAO Planson Steven J Director Sep 25, 2020 6,000
TRC TOWERVIEW LLC 10% Owner Sep 25, 2020 40
HOME Bird Lewis L III Chairman, CEO and President Sep 23, 2020 49,748
LSF Danone Manifesto Ventures, PBC 10% Owner Sep 25, 2020 2,000,020
FXNC Smith Gerald F JR Director Sep 24, 2020 28,848
EYEN Grant Stuart M. 10% Owner Sep 24, 2020 224,500
LIVX ELLIN ROBERT S CEO & Chairman Sep 22, 2020 2,833
FMAO Planson Steven J Director Sep 24, 2020 8,493
RCG STAHL MURRAY President and CEO Sep 24, 2020 388
RCG STAHL MURRAY President and CEO Sep 24, 2020 388
RCG STAHL MURRAY President and CEO Sep 24, 2020 97
LBAI SCHWARZ RONALD E Sr. EVP & COO Sep 23, 2020 24,625
TPL HORIZON KINETICS ASSET MANAGEMENT LLC 10% Owner Sep 24, 2020 6,398
OFC PICKETT C TAYLOR Director Sep 24, 2020 221,601
RZLT HANDOK, INC. 10% Owner Sep 23, 2020 57,138
RZLT HANDOK, INC. 10% Owner Sep 24, 2020 55,400
Next : Last